BAW6DE FALE-FAOR
Flight info
| Callsign | BAW6DE |
|---|---|
| Flight time | N/A |
| Altitude | 36000 |
| Route | GEPOM UZ29 UNPOM UNPOM1A |
| Aircraft | A320/M-SDE3FGHIRWY/LB1 |
Departure
| Time | 2026-05-04 09:01 |
|---|---|
| Airport | King Shaka International Airport (FALE) |
Arrival
| Time | N/A |
|---|---|
| Airport | O.R. Tambo International Airport (FAOR) |
| Time | Latitude | Longitude | Altitude | Speed | Heading |
|---|---|---|---|---|---|
| 2026-05-04 08:38 | -29.60902 | 31.11386 | 303 ft | 0 kts | 37° |
| 2026-05-04 08:51 | -29.60916 | 31.11374 | 304 ft | 4 kts | 38° |
| 2026-05-04 08:51 | -29.60937 | 31.11354 | 303 ft | 4 kts | 39° |
| 2026-05-04 08:52 | -29.60956 | 31.11337 | 302 ft | 2 kts | 37° |
| 2026-05-04 08:52 | -29.60974 | 31.11317 | 301 ft | 4 kts | 68° |
| 2026-05-04 08:52 | -29.60975 | 31.11290 | 301 ft | 4 kts | 121° |
| 2026-05-04 08:52 | -29.60958 | 31.11266 | 302 ft | 4 kts | 133° |
| 2026-05-04 08:53 | -29.60952 | 31.11258 | 303 ft | 0 kts | 128° |
| 2026-05-04 08:55 | -29.60961 | 31.11270 | 303 ft | 4 kts | 133° |
| 2026-05-04 08:55 | -29.60991 | 31.11299 | 303 ft | 9 kts | 152° |
| 2026-05-04 08:57 | -29.61576 | 31.11337 | 302 ft | 22 kts | 217° |
| 2026-05-04 09:01 | -29.59475 | 31.13356 | 1530 ft | 157 kts | 35° |
| 2026-05-04 09:01 | -29.58558 | 31.14135 | 1900 ft | 173 kts | 30° |
| 2026-05-04 09:01 | -29.57346 | 31.14391 | 2150 ft | 191 kts | 341° |
| 2026-05-04 09:01 | -29.56223 | 31.13508 | 2433 ft | 210 kts | 310° |
| 2026-05-04 09:02 | -29.55221 | 31.12200 | 2815 ft | 232 kts | 310° |
| 2026-05-04 09:02 | -29.54096 | 31.10736 | 3357 ft | 253 kts | 310° |
| 2026-05-04 09:02 | -29.52879 | 31.09171 | 3957 ft | 269 kts | 311° |
| 2026-05-04 09:02 | -29.51602 | 31.07551 | 4755 ft | 277 kts | 311° |
| 2026-05-04 09:03 | -29.50287 | 31.05890 | 5566 ft | 283 kts | 311° |
| 2026-05-04 09:03 | -29.48966 | 31.04221 | 6437 ft | 288 kts | 311° |
| 2026-05-04 09:03 | -29.47614 | 31.02518 | 7306 ft | 290 kts | 311° |
| 2026-05-04 09:03 | -29.46246 | 31.00797 | 8173 ft | 292 kts | 311° |
| 2026-05-04 09:04 | -29.44868 | 30.99068 | 9060 ft | 294 kts | 311° |
| 2026-05-04 09:04 | -29.43489 | 30.97338 | 9961 ft | 294 kts | 311° |
| 2026-05-04 09:04 | -29.42073 | 30.95557 | 10361 ft | 313 kts | 311° |
| 2026-05-04 09:04 | -29.40562 | 30.93655 | 10772 ft | 328 kts | 312° |
| 2026-05-04 09:05 | -29.39014 | 30.91712 | 11464 ft | 332 kts | 312° |
| 2026-05-04 09:05 | -29.37449 | 30.89754 | 12227 ft | 334 kts | 312° |
| 2026-05-04 09:05 | -29.35877 | 30.87786 | 12994 ft | 335 kts | 312° |
| 2026-05-04 09:05 | -29.34298 | 30.85808 | 13765 ft | 337 kts | 312° |
| 2026-05-04 09:06 | -29.32712 | 30.83822 | 14445 ft | 338 kts | 312° |